Time;durP1;ratioP1;P1;durP2;ratioP2;P2;SDS_P1;SDS_P2;PMS_P1;PMS_P2;Temp;Humidity;BMP_temperature;BMP_pressure;BME280_temperature;BME280_humidity;BME280_pressure;Samples;Min_cycle;Max_cycle;Signal;HPM_P1;HPM_P2
2021/09/21 00:01:05;;;;;;;10.15;6.65;;;;;;;;;;5036558;28;20440;-58
2021/09/21 00:03:32;;;;;;;10.82;8.57;;;;;;;;;;5019302;28;20026;-58
2021/09/21 00:06:01;;;;;;;9.95;6.60;;;;;;;;;;5036762;28;20029;-58
2021/09/21 00:08:27;;;;;;;8.32;7.35;;;;;;;;;;5019373;28;20045;-58
2021/09/21 00:10:57;;;;;;;7.43;6.60;;;;;;;;;;5036734;28;20028;-58
2021/09/21 00:13:23;;;;;;;7.90;7.10;;;;;;;;;;5036459;28;20041;-58
2021/09/21 00:15:49;;;;;;;9.02;6.57;;;;;;;;;;5036901;28;20033;-58
2021/09/21 00:18:15;;;;;;;9.82;6.40;;;;;;;;;;5036326;28;20459;-58
2021/09/21 00:20:41;;;;;;;9.82;7.60;;;;;;;;;;5036247;28;20506;-58
2021/09/21 00:23:08;;;;;;;11.13;6.80;;;;;;;;;;5036323;28;20034;-58
2021/09/21 00:25:34;;;;;;;10.02;7.20;;;;;;;;;;5036126;28;20115;-58
2021/09/21 00:28:00;;;;;;;8.50;7.40;;;;;;;;;;5036287;28;20080;-58
2021/09/21 00:30:26;;;;;;;6.82;6.03;;;;;;;;;;5036062;28;20028;-58
2021/09/21 00:33:05;;;;;;;11.02;7.63;;;;;;;;;;5035900;28;20036;-58
2021/09/21 00:35:40;;;;;;;8.65;6.90;;;;;;;;;;5018736;28;20025;-58
2021/09/21 00:38:06;;;;;;;8.43;7.38;;;;;;;;;;5036476;28;20030;-58
2021/09/21 00:40:32;;;;;;;8.32;6.97;;;;;;;;;;5035325;28;20348;-58
2021/09/21 00:43:02;;;;;;;8.70;7.28;;;;;;;;;;5036175;28;20031;-58
2021/09/21 00:45:28;;;;;;;8.57;6.80;;;;;;;;;;5035762;28;20539;-58
2021/09/21 00:47:55;;;;;;;9.45;7.38;;;;;;;;;;5018682;28;20072;-58
2021/09/21 00:50:22;;;;;;;8.25;7.43;;;;;;;;;;5035678;28;20025;-58
2021/09/21 00:52:51;;;;;;;9.63;7.18;;;;;;;;;;5035986;28;20049;-58
2021/09/21 00:55:18;;;;;;;8.13;6.78;;;;;;;;;;5035771;28;20033;-59
2021/09/21 00:57:44;;;;;;;8.55;6.57;;;;;;;;;;5035830;28;20363;-58
2021/09/21 01:00:12;;;;;;;9.07;6.72;;;;;;;;;;5017769;28;20037;-58
2021/09/21 01:02:38;;;;;;;8.07;7.28;;;;;;;;;;5035572;28;20049;-58
2021/09/21 01:05:06;;;;;;;9.20;7.15;;;;;;;;;;5035309;28;20060;-58
2021/09/21 01:07:36;;;;;;;10.18;7.18;;;;;;;;;;5035562;28;20112;-59
2021/09/21 01:13:05;;;;;;;8.75;6.63;;;;;;;;;;5034838;28;20119;-58
2021/09/21 01:15:31;;;;;;;6.82;6.22;;;;;;;;;;5036012;28;20025;-58
2021/09/21 01:18:00;;;;;;;8.85;6.82;;;;;;;;;;5034822;28;20537;-58
2021/09/21 01:20:27;;;;;;;10.05;7.45;;;;;;;;;;5035049;28;20025;-58
2021/09/21 01:22:53;;;;;;;9.98;7.88;;;;;;;;;;5017603;28;20452;-58
2021/09/21 01:25:19;;;;;;;8.80;6.53;;;;;;;;;;5034901;28;20092;-58
2021/09/21 01:27:45;;;;;;;8.60;7.30;;;;;;;;;;5034810;28;20117;-58
2021/09/21 01:30:12;;;;;;;9.18;7.45;;;;;;;;;;5035088;28;20092;-58
2021/09/21 01:32:38;;;;;;;10.48;7.47;;;;;;;;;;5016905;28;20025;-58
2021/09/21 01:35:05;;;;;;;9.88;7.78;;;;;;;;;;5034601;28;20033;-58
2021/09/21 01:37:33;;;;;;;9.02;7.68;;;;;;;;;;5034298;28;20033;-58
2021/09/21 01:39:59;;;;;;;9.73;8.73;;;;;;;;;;5017299;28;20029;-58
2021/09/21 01:42:25;;;;;;;8.63;7.25;;;;;;;;;;5034457;28;20028;-58
2021/09/21 01:44:51;;;;;;;8.88;7.28;;;;;;;;;;5035147;28;20033;-58
2021/09/21 01:47:20;;;;;;;9.45;7.65;;;;;;;;;;5016886;28;20514;-58
2021/09/21 01:52:47;;;;;;;9.18;7.82;;;;;;;;;;5034372;28;20128;-58
2021/09/21 01:55:21;;;;;;;9.65;8.30;;;;;;;;;;5034735;28;20036;-58
2021/09/21 02:00:32;;;;;;;8.77;7.78;;;;;;;;;;5034404;28;20077;-58
2021/09/21 02:02:58;;;;;;;9.95;7.82;;;;;;;;;;5035154;28;20025;-58
2021/09/21 02:05:24;;;;;;;8.88;7.53;;;;;;;;;;5016760;28;20372;-58
2021/09/21 02:07:50;;;;;;;10.10;7.47;;;;;;;;;;5034673;28;20117;-58
2021/09/21 02:10:20;;;;;;;10.35;7.90;;;;;;;;;;5033855;28;20061;-58
2021/09/21 02:12:46;;;;;;;9.18;8.20;;;;;;;;;;5034233;28;20022;-59
2021/09/21 02:15:12;;;;;;;9.27;7.63;;;;;;;;;;5033760;28;20033;-58
2021/09/21 02:17:38;;;;;;;9.02;7.93;;;;;;;;;;5016932;28;20032;-58
2021/09/21 02:20:04;;;;;;;9.95;8.15;;;;;;;;;;5016884;28;20029;-58
2021/09/21 02:22:30;;;;;;;9.02;8.13;;;;;;;;;;5034829;28;20052;-58
2021/09/21 02:24:56;;;;;;;8.85;7.93;;;;;;;;;;5016234;28;20018;-58
2021/09/21 02:27:23;;;;;;;10.18;7.43;;;;;;;;;;5033910;28;20349;-58
2021/09/21 02:29:52;;;;;;;10.52;8.05;;;;;;;;;;5033790;28;20365;-58
2021/09/21 02:32:18;;;;;;;9.57;8.57;;;;;;;;;;5033416;28;20038;-58
2021/09/21 02:34:47;;;;;;;10.23;8.38;;;;;;;;;;5034371;28;20033;-58
2021/09/21 02:37:17;;;;;;;8.45;7.18;;;;;;;;;;5033365;28;20475;-58
2021/09/21 02:39:43;;;;;;;9.00;7.90;;;;;;;;;;4999923;28;20076;-58
2021/09/21 02:42:09;;;;;;;7.95;6.90;;;;;;;;;;5016091;28;20268;-58
2021/09/21 02:44:36;;;;;;;9.10;7.68;;;;;;;;;;5033692;28;20026;-58
2021/09/21 02:47:04;;;;;;;8.32;7.47;;;;;;;;;;5033682;28;20030;-58
2021/09/21 02:49:36;;;;;;;14.32;8.60;;;;;;;;;;5015738;28;20064;-58
2021/09/21 02:52:02;;;;;;;10.75;8.45;;;;;;;;;;5033361;28;20034;-58
2021/09/21 02:54:28;;;;;;;10.93;8.30;;;;;;;;;;5033607;28;20029;-58
2021/09/21 02:56:54;;;;;;;11.65;7.00;;;;;;;;;;5033472;28;20029;-58
2021/09/21 02:59:20;;;;;;;9.73;7.65;;;;;;;;;;5016437;28;20033;-58
2021/09/21 03:01:46;;;;;;;11.73;8.35;;;;;;;;;;5033560;28;20025;-58
2021/09/21 03:04:36;;;;;;;8.05;7.18;;;;;;;;;;5019978;28;20405;-58
2021/09/21 03:07:14;;;;;;;10.43;8.90;;;;;;;;;;5037686;28;20088;-58
2021/09/21 03:17:28;;;;;;;9.95;7.95;;;;;;;;;;5037750;28;20542;-58
2021/09/21 03:19:54;;;;;;;9.82;7.85;;;;;;;;;;5037635;28;20053;-58
2021/09/21 03:22:21;;;;;;;8.32;6.93;;;;;;;;;;5037632;28;20060;-58
2021/09/21 03:24:47;;;;;;;8.50;7.60;;;;;;;;;;5037253;28;20021;-58
2021/09/21 03:27:13;;;;;;;9.15;7.65;;;;;;;;;;5037157;28;20073;-58
2021/09/21 03:29:41;;;;;;;9.65;8.75;;;;;;;;;;5037371;28;20041;-58
2021/09/21 03:32:08;;;;;;;9.55;8.55;;;;;;;;;;5037410;28;20061;-58
2021/09/21 03:34:37;;;;;;;8.75;7.78;;;;;;;;;;5019375;28;20021;-58
2021/09/21 03:37:03;;;;;;;12.77;8.32;;;;;;;;;;5019462;28;20392;-58
2021/09/21 03:39:32;;;;;;;11.80;8.38;;;;;;;;;;5037111;28;20029;-58
2021/09/21 03:42:01;;;;;;;9.90;8.57;;;;;;;;;;5019621;28;20079;-58
2021/09/21 03:44:27;;;;;;;9.45;7.82;;;;;;;;;;5019411;28;20025;-58
2021/09/21 03:46:53;;;;;;;11.98;9.55;;;;;;;;;;5036881;28;20029;-58
2021/09/21 03:49:19;;;;;;;9.77;8.63;;;;;;;;;;5019622;28;20036;-58
2021/09/21 03:51:46;;;;;;;9.05;7.75;;;;;;;;;;5036761;28;20033;-58
2021/09/21 03:54:12;;;;;;;10.45;7.72;;;;;;;;;;5037511;28;20022;-58
2021/09/21 03:56:38;;;;;;;9.98;8.10;;;;;;;;;;5019079;28;20026;-59
2021/09/21 03:59:05;;;;;;;9.88;8.88;;;;;;;;;;5018983;28;20030;-58
2021/09/21 04:01:31;;;;;;;13.07;8.40;;;;;;;;;;5036651;28;20483;-58
2021/09/21 04:03:58;;;;;;;12.07;9.63;;;;;;;;;;5036909;28;20064;-58
2021/09/21 04:06:24;;;;;;;10.70;9.27;;;;;;;;;;5036793;28;20061;-58
2021/09/21 04:08:50;;;;;;;14.38;9.38;;;;;;;;;;5019598;28;20084;-58
2021/09/21 04:11:16;;;;;;;9.13;7.97;;;;;;;;;;5036477;28;20372;-58
2021/09/21 04:13:42;;;;;;;12.45;8.45;;;;;;;;;;5018872;28;20080;-58
2021/09/21 04:16:08;;;;;;;10.23;8.57;;;;;;;;;;5018814;28;20423;-58
2021/09/21 04:18:34;;;;;;;9.90;8.65;;;;;;;;;;5036224;28;20060;-57
2021/09/21 04:21:00;;;;;;;10.93;7.68;;;;;;;;;;5019011;28;20029;-58
2021/09/21 04:23:26;;;;;;;9.98;8.70;;;;;;;;;;5018169;28;20446;-58
2021/09/21 04:25:52;;;;;;;9.88;8.27;;;;;;;;;;5036088;28;20105;-58
2021/09/21 04:28:20;;;;;;;10.90;8.60;;;;;;;;;;5036054;28;20112;-58
2021/09/21 04:30:53;;;;;;;11.35;10.00;;;;;;;;;;5018854;28;20025;-58
2021/09/21 04:33:20;;;;;;;9.75;8.75;;;;;;;;;;5036374;28;20038;-58
2021/09/21 04:35:48;;;;;;;10.45;9.23;;;;;;;;;;5018136;28;20049;-58
2021/09/21 04:38:14;;;;;;;9.15;8.15;;;;;;;;;;5002197;28;20483;-58
2021/09/21 04:40:42;;;;;;;11.15;9.80;;;;;;;;;;5035892;28;20026;-58
2021/09/21 04:43:08;;;;;;;11.60;9.05;;;;;;;;;;5018909;28;20337;-58
2021/09/21 04:45:37;;;;;;;12.70;9.32;;;;;;;;;;5035467;28;20591;-58
2021/09/21 04:48:06;;;;;;;9.75;8.82;;;;;;;;;;5017661;28;20030;-58
2021/09/21 04:50:32;;;;;;;9.57;7.63;;;;;;;;;;5017862;28;20025;-58
2021/09/21 04:52:58;;;;;;;10.45;8.30;;;;;;;;;;5035689;28;20108;-58
2021/09/21 04:55:24;;;;;;;9.18;8.27;;;;;;;;;;5035557;28;20104;-58
2021/09/21 04:57:50;;;;;;;10.63;8.35;;;;;;;;;;5035750;28;20029;-58
2021/09/21 05:00:18;;;;;;;9.75;8.73;;;;;;;;;;5035544;28;20380;-58
2021/09/21 05:02:44;;;;;;;10.55;8.73;;;;;;;;;;5018281;28;20116;-58
2021/09/21 05:05:10;;;;;;;13.13;9.85;;;;;;;;;;5017324;28;20434;-58
2021/09/21 05:07:36;;;;;;;13.02;8.95;;;;;;;;;;5035372;28;20025;-58
2021/09/21 05:10:04;;;;;;;10.93;9.07;;;;;;;;;;5035098;28;20042;-58
2021/09/21 05:12:33;;;;;;;10.65;9.55;;;;;;;;;;5035802;28;20432;-58
2021/09/21 05:14:59;;;;;;;10.60;9.48;;;;;;;;;;5034772;28;20089;-58
2021/09/21 05:17:25;;;;;;;9.45;8.45;;;;;;;;;;5018299;28;20452;-58
2021/09/21 05:19:52;;;;;;;10.35;8.75;;;;;;;;;;5035245;28;20040;-58
2021/09/21 05:22:18;;;;;;;10.43;9.32;;;;;;;;;;5002212;28;20022;-58
2021/09/21 05:24:46;;;;;;;13.30;9.73;;;;;;;;;;5000860;28;20185;-58
2021/09/21 05:27:12;;;;;;;11.65;10.25;;;;;;;;;;5034702;28;20044;-58
2021/09/21 05:29:38;;;;;;;11.98;9.57;;;;;;;;;;5035254;28;20033;-58
2021/09/21 05:32:04;;;;;;;9.73;8.57;;;;;;;;;;5035339;28;20048;-58
2021/09/21 05:34:32;;;;;;;11.57;9.15;;;;;;;;;;5035376;28;20383;-58
2021/09/21 05:37:01;;;;;;;10.68;9.57;;;;;;;;;;5034779;28;20040;-58
2021/09/21 05:39:27;;;;;;;11.77;9.00;;;;;;;;;;5035079;28;20056;-58
2021/09/21 05:41:53;;;;;;;9.75;8.85;;;;;;;;;;5035100;28;20105;-58
2021/09/21 05:44:19;;;;;;;12.70;9.10;;;;;;;;;;5017842;28;20057;-58
2021/09/21 05:46:49;;;;;;;11.63;9.50;;;;;;;;;;5017526;28;20053;-58
2021/09/21 05:49:14;;;;;;;14.18;9.38;;;;;;;;;;5034608;28;20045;-58
2021/09/21 05:51:41;;;;;;;12.32;8.75;;;;;;;;;;5034562;28;20017;-58
2021/09/21 05:54:07;;;;;;;10.15;8.85;;;;;;;;;;5035118;28;20080;-58
2021/09/21 05:56:37;;;;;;;10.98;8.63;;;;;;;;;;5034519;28;20025;-58
2021/09/21 05:59:03;;;;;;;9.77;8.10;;;;;;;;;;5016763;28;20057;-58
2021/09/21 06:01:32;;;;;;;11.88;9.27;;;;;;;;;;5034437;28;20053;-58
2021/09/21 06:04:00;;;;;;;11.85;8.88;;;;;;;;;;5016718;28;20049;-58
2021/09/21 06:06:26;;;;;;;8.48;7.63;;;;;;;;;;5034430;28;20108;-58
2021/09/21 06:08:55;;;;;;;10.57;8.63;;;;;;;;;;5034210;28;20072;-58
2021/09/21 06:11:27;;;;;;;10.32;8.27;;;;;;;;;;5034456;28;20017;-58
2021/09/21 06:13:55;;;;;;;10.63;8.82;;;;;;;;;;5033879;28;20136;-58
2021/09/21 06:16:21;;;;;;;9.60;8.05;;;;;;;;;;5016825;28;20032;-58
2021/09/21 06:18:47;;;;;;;10.40;8.00;;;;;;;;;;5034170;28;20026;-58
2021/09/21 06:21:13;;;;;;;11.00;9.63;;;;;;;;;;5033997;28;20044;-58
2021/09/21 06:23:40;;;;;;;13.52;10.20;;;;;;;;;;5034142;28;20064;-58
2021/09/21 06:26:06;;;;;;;9.57;8.13;;;;;;;;;;5016362;28;20029;-58
2021/09/21 06:28:32;;;;;;;10.65;8.18;;;;;;;;;;5016583;28;20036;-58
2021/09/21 06:30:58;;;;;;;10.70;8.15;;;;;;;;;;5034464;28;20459;-58
2021/09/21 06:33:24;;;;;;;10.88;8.65;;;;;;;;;;5000303;28;20040;-58
2021/09/21 06:35:51;;;;;;;10.32;7.85;;;;;;;;;;5033572;28;20371;-58
2021/09/21 06:38:17;;;;;;;8.85;7.95;;;;;;;;;;5016568;28;20119;-58
2021/09/21 06:40:43;;;;;;;9.70;7.80;;;;;;;;;;5016133;28;20029;-58
2021/09/21 06:43:09;;;;;;;11.15;8.98;;;;;;;;;;5016139;28;20056;-58
2021/09/21 06:45:35;;;;;;;8.50;7.28;;;;;;;;;;5033450;28;20065;-58
2021/09/21 06:48:01;;;;;;;11.52;9.25;;;;;;;;;;5016024;28;20124;-58
2021/09/21 06:50:27;;;;;;;9.63;8.07;;;;;;;;;;5033320;28;20064;-58
2021/09/21 06:52:53;;;;;;;10.95;9.48;;;;;;;;;;5016837;28;20033;-58
2021/09/21 06:55:19;;;;;;;13.13;7.60;;;;;;;;;;5033680;28;20364;-58
2021/09/21 06:57:52;;;;;;;11.10;8.77;;;;;;;;;;5033623;28;20045;-58
2021/09/21 07:00:19;;;;;;;10.50;8.75;;;;;;;;;;5033915;28;20036;-58
2021/09/21 07:02:52;;;;;;;10.18;8.00;;;;;;;;;;5033883;28;20371;-58
2021/09/21 07:05:18;;;;;;;8.90;7.35;;;;;;;;;;5034109;28;20025;-58
2021/09/21 07:07:48;;;;;;;9.13;7.88;;;;;;;;;;5016593;28;20017;-58
2021/09/21 07:10:17;;;;;;;11.43;8.07;;;;;;;;;;5033564;28;20041;-58
2021/09/21 07:12:46;;;;;;;9.70;7.82;;;;;;;;;;5033086;28;20144;-59
2021/09/21 07:15:13;;;;;;;10.73;8.93;;;;;;;;;;5033379;28;20108;-58
2021/09/21 07:17:39;;;;;;;8.90;7.78;;;;;;;;;;5015766;28;20420;-58
2021/09/21 07:20:06;;;;;;;10.75;8.55;;;;;;;;;;5033426;28;20029;-58
2021/09/21 07:22:32;;;;;;;9.38;7.18;;;;;;;;;;5033833;28;20035;-58
2021/09/21 07:24:58;;;;;;;9.48;8.52;;;;;;;;;;5033330;28;20033;-58
2021/09/21 07:27:24;;;;;;;10.65;7.72;;;;;;;;;;5033083;28;20379;-58
2021/09/21 07:29:50;;;;;;;10.65;8.30;;;;;;;;;;5033113;28;20463;-58
2021/09/21 07:32:20;;;;;;;9.45;8.38;;;;;;;;;;5033869;28;20061;-58
2021/09/21 07:34:46;;;;;;;8.77;7.88;;;;;;;;;;5033201;28;20052;-58
2021/09/21 07:37:13;;;;;;;8.52;7.70;;;;;;;;;;5033225;28;20025;-58
2021/09/21 07:39:42;;;;;;;7.55;6.65;;;;;;;;;;5033281;28;20029;-58
2021/09/21 07:42:09;;;;;;;13.82;8.57;;;;;;;;;;5015258;28;20026;-58
2021/09/21 07:44:35;;;;;;;7.60;6.80;;;;;;;;;;5033470;28;20044;-58
2021/09/21 07:47:01;;;;;;;8.68;7.70;;;;;;;;;;5033011;28;20021;-58
2021/09/21 07:49:30;;;;;;;9.52;7.60;;;;;;;;;;5035332;28;20028;-58
2021/09/21 07:51:56;;;;;;;9.27;8.10;;;;;;;;;;5036884;28;20526;-58
2021/09/21 07:54:24;;;;;;;10.82;7.50;;;;;;;;;;5037285;28;20064;-58
2021/09/21 07:56:50;;;;;;;11.65;7.07;;;;;;;;;;5037363;28;20029;-58
2021/09/21 07:59:19;;;;;;;8.40;7.28;;;;;;;;;;5036762;28;20036;-58
2021/09/21 08:01:45;;;;;;;8.52;7.63;;;;;;;;;;5036623;28;20030;-58
2021/09/21 08:04:11;;;;;;;8.63;7.65;;;;;;;;;;5036992;28;20022;-58
2021/09/21 08:06:40;;;;;;;8.68;7.15;;;;;;;;;;5036571;28;20026;-58
2021/09/21 08:09:06;;;;;;;8.77;7.85;;;;;;;;;;5036316;28;20037;-58
2021/09/21 08:11:33;;;;;;;10.05;7.90;;;;;;;;;;5018930;28;20053;-58
2021/09/21 08:14:03;;;;;;;8.43;7.32;;;;;;;;;;5036610;28;20058;-58
2021/09/21 08:16:30;;;;;;;8.82;8.02;;;;;;;;;;5036450;28;20451;-59
2021/09/21 08:18:56;;;;;;;10.98;8.27;;;;;;;;;;5019367;28;20033;-58
2021/09/21 08:21:25;;;;;;;15.45;8.15;;;;;;;;;;5036349;28;20026;-59
2021/09/21 08:23:51;;;;;;;8.88;7.97;;;;;;;;;;5036220;28;20024;-58
2021/09/21 08:26:17;;;;;;;9.80;7.53;;;;;;;;;;5036242;28;20029;-58
2021/09/21 08:28:43;;;;;;;8.43;7.35;;;;;;;;;;5036118;28;20088;-58
2021/09/21 08:31:09;;;;;;;8.77;7.65;;;;;;;;;;5018383;28;20076;-58
2021/09/21 08:33:35;;;;;;;6.88;6.00;;;;;;;;;;5036682;28;20025;-58
2021/09/21 08:36:01;;;;;;;7.75;6.95;;;;;;;;;;5018658;28;20026;-58
2021/09/21 08:38:27;;;;;;;7.00;6.30;;;;;;;;;;5036400;28;20364;-58
2021/09/21 08:40:53;;;;;;;7.07;6.30;;;;;;;;;;5018295;28;20033;-58
2021/09/21 08:43:22;;;;;;;7.63;5.65;;;;;;;;;;5035829;28;20033;-58
2021/09/21 08:45:48;;;;;;;6.38;5.13;;;;;;;;;;5036007;28;20021;-58
2021/09/21 08:48:14;;;;;;;6.88;6.00;;;;;;;;;;5035558;28;20029;-58
2021/09/21 08:50:40;;;;;;;7.53;6.43;;;;;;;;;;5035501;28;20025;-58
2021/09/21 08:53:06;;;;;;;8.23;5.65;;;;;;;;;;5035658;28;20025;-58
2021/09/21 08:55:32;;;;;;;7.15;6.03;;;;;;;;;;5035564;28;20026;-58
2021/09/21 08:58:02;;;;;;;7.30;5.55;;;;;;;;;;5035482;28;20025;-58
2021/09/21 09:00:29;;;;;;;7.57;5.97;;;;;;;;;;5016735;28;20029;-58
2021/09/21 09:03:09;;;;;;;6.30;5.15;;;;;;;;;;5036115;28;20104;-58
2021/09/21 09:05:42;;;;;;;7.97;5.53;;;;;;;;;;5018313;28;20088;-58
2021/09/21 09:08:11;;;;;;;7.47;5.88;;;;;;;;;;5035372;28;20080;-58
2021/09/21 09:10:37;;;;;;;7.93;5.50;;;;;;;;;;5035355;28;20065;-58
2021/09/21 09:13:18;;;;;;;7.63;5.90;;;;;;;;;;5035432;28;20061;-58
2021/09/21 09:15:52;;;;;;;6.97;5.25;;;;;;;;;;5035294;28;20029;-58
2021/09/21 09:18:23;;;;;;;5.43;4.68;;;;;;;;;;5035819;28;20060;-58
2021/09/21 09:20:49;;;;;;;8.13;5.82;;;;;;;;;;5035262;28;20628;-58
2021/09/21 09:23:15;;;;;;;6.53;5.90;;;;;;;;;;5035268;28;20025;-58
2021/09/21 09:25:42;;;;;;;7.43;4.78;;;;;;;;;;5035823;28;20025;-58
2021/09/21 09:28:20;;;;;;;6.00;4.55;;;;;;;;;;5017481;28;20057;-58
2021/09/21 09:30:47;;;;;;;6.38;5.70;;;;;;;;;;5035175;28;20486;-58
2021/09/21 09:33:14;;;;;;;8.18;5.53;;;;;;;;;;5035914;28;20029;-58
2021/09/21 09:35:43;;;;;;;7.63;5.78;;;;;;;;;;5034991;28;20509;-58
2021/09/21 09:38:11;;;;;;;6.55;5.18;;;;;;;;;;5035736;28;20045;-58
2021/09/21 09:40:41;;;;;;;7.40;5.68;;;;;;;;;;5035165;28;20053;-58
2021/09/21 09:43:11;;;;;;;7.68;5.80;;;;;;;;;;5035002;28;20031;-58
2021/09/21 09:45:41;;;;;;;5.57;4.72;;;;;;;;;;5035278;28;20029;-58
2021/09/21 09:48:08;;;;;;;5.40;4.80;;;;;;;;;;5034994;28;20022;-58
2021/09/21 09:50:36;;;;;;;8.15;5.13;;;;;;;;;;5035495;28;20053;-58
2021/09/21 09:53:14;;;;;;;6.40;5.72;;;;;;;;;;5035017;28;20033;-58
2021/09/21 09:55:47;;;;;;;6.32;5.53;;;;;;;;;;5034854;28;20060;-58
2021/09/21 09:58:14;;;;;;;6.88;5.65;;;;;;;;;;5035088;28;20017;-58
2021/09/21 10:00:40;;;;;;;5.72;4.88;;;;;;;;;;5034388;28;20439;-58
2021/09/21 10:03:07;;;;;;;6.95;5.60;;;;;;;;;;5034573;28;20018;-58
2021/09/21 10:05:34;;;;;;;6.28;5.25;;;;;;;;;;5034656;28;20026;-58
2021/09/21 10:08:00;;;;;;;8.60;7.10;;;;;;;;;;5034044;28;20029;-58
2021/09/21 10:10:30;;;;;;;7.57;6.72;;;;;;;;;;5034315;28;20466;-58
2021/09/21 10:12:58;;;;;;;9.30;5.45;;;;;;;;;;5034247;28;20025;-58
2021/09/21 10:15:28;;;;;;;7.43;5.70;;;;;;;;;;5034886;28;20022;-58
2021/09/21 10:17:55;;;;;;;7.18;6.47;;;;;;;;;;5034220;28;20032;-58
2021/09/21 10:20:22;;;;;;;5.95;5.32;;;;;;;;;;5034205;28;20025;-59
2021/09/21 10:22:55;;;;;;;8.82;5.60;;;;;;;;;;5034807;28;20029;-58
2021/09/21 10:25:28;;;;;;;6.55;5.45;;;;;;;;;;5034406;28;20108;-59
2021/09/21 10:27:54;;;;;;;6.22;4.65;;;;;;;;;;5033850;28;20029;-59
2021/09/21 10:30:22;;;;;;;6.35;5.13;;;;;;;;;;5034570;28;20057;-58
2021/09/21 10:32:50;;;;;;;5.90;5.15;;;;;;;;;;5034037;28;20037;-58
2021/09/21 10:35:18;;;;;;;6.22;5.13;;;;;;;;;;5033709;28;20076;-59
2021/09/21 10:37:44;;;;;;;7.25;6.03;;;;;;;;;;5033923;28;20026;-59
2021/09/21 10:40:11;;;;;;;6.55;5.28;;;;;;;;;;5016990;28;20022;-58
2021/09/21 10:42:49;;;;;;;9.35;6.15;;;;;;;;;;5034459;28;20036;-58
2021/09/21 10:45:23;;;;;;;6.22;5.22;;;;;;;;;;5016720;28;20448;-59
2021/09/21 10:47:59;;;;;;;6.60;5.88;;;;;;;;;;5034203;28;20033;-59
2021/09/21 10:50:25;;;;;;;6.97;6.28;;;;;;;;;;5033801;28;20041;-59
2021/09/21 10:53:01;;;;;;;7.25;6.05;;;;;;;;;;5033752;28;20029;-59
2021/09/21 10:55:34;;;;;;;6.32;5.50;;;;;;;;;;5034319;28;20033;-59
2021/09/21 10:58:06;;;;;;;5.68;5.10;;;;;;;;;;5033715;28;20032;-59
2021/09/21 11:00:34;;;;;;;6.68;5.57;;;;;;;;;;5034234;28;20040;-58
2021/09/21 11:03:01;;;;;;;7.32;6.55;;;;;;;;;;5034162;28;20032;-59
2021/09/21 11:05:30;;;;;;;9.35;7.05;;;;;;;;;;5033641;28;20058;-59
2021/09/21 11:07:56;;;;;;;7.05;5.80;;;;;;;;;;5033523;28;20450;-58
2021/09/21 11:10:26;;;;;;;8.13;6.40;;;;;;;;;;5033373;28;20100;-59
2021/09/21 11:12:52;;;;;;;;;;;;;;;;;;5016862;28;20029;-59
2021/09/21 11:15:21;;;;;;;7.47;5.00;;;;;;;;;;5033904;28;20323;-59
2021/09/21 11:17:47;;;;;;;6.60;6.00;;;;;;;;;;5033858;28;20037;-59
2021/09/21 11:20:13;;;;;;;7.13;6.25;;;;;;;;;;5034319;28;20025;-58
2021/09/21 11:22:40;;;;;;;8.68;5.95;;;;;;;;;;5033861;28;20029;-59
2021/09/21 11:25:06;;;;;;;6.55;4.82;;;;;;;;;;5036909;28;20033;-59
2021/09/21 11:27:37;;;;;;;6.93;5.03;;;;;;;;;;5037417;28;20026;-59
2021/09/21 11:30:03;;;;;;;;;;;;;;;;;;5037616;28;20029;-59
2021/09/21 11:32:32;;;;;;;6.35;4.90;;;;;;;;;;5037787;28;19928;-59
2021/09/21 11:35:06;;;;;;;5.45;4.95;;;;;;;;;;5036998;28;20108;-59
2021/09/21 11:37:35;;;;;;;7.43;6.25;;;;;;;;;;5036616;28;20108;-59
2021/09/21 11:40:01;;;;;;;6.88;5.70;;;;;;;;;;5036668;28;20036;-59
2021/09/21 11:42:29;;;;;;;6.38;5.30;;;;;;;;;;5037413;28;20065;-59
2021/09/21 11:45:13;;;;;;;7.97;5.90;;;;;;;;;;5037666;28;20060;-59
2021/09/21 11:47:42;;;;;;;7.57;5.45;;;;;;;;;;5019756;28;20033;-59
2021/09/21 11:50:12;;;;;;;8.00;6.40;;;;;;;;;;5036770;28;20475;-58
2021/09/21 11:52:40;;;;;;;7.10;5.75;;;;;;;;;;5037043;28;20470;-59
2021/09/21 11:55:16;;;;;;;5.90;5.18;;;;;;;;;;5035830;28;20026;-58
2021/09/21 11:57:43;;;;;;;6.00;5.07;;;;;;;;;;5036943;28;20107;-59
2021/09/21 12:00:18;;;;;;;5.15;4.65;;;;;;;;;;5036971;28;20029;-59
2021/09/21 12:02:44;;;;;;;6.35;5.35;;;;;;;;;;5036849;28;20062;-59
2021/09/21 12:05:13;;;;;;;5.88;5.28;;;;;;;;;;5036525;28;20419;-59
2021/09/21 12:07:40;;;;;;;6.50;5.85;;;;;;;;;;5036155;28;20031;-59
2021/09/21 12:10:07;;;;;;;6.28;4.75;;;;;;;;;;5036123;28;20395;-59
2021/09/21 12:12:33;;;;;;;6.15;5.15;;;;;;;;;;5037394;28;20041;-59
2021/09/21 12:15:00;;;;;;;5.88;5.15;;;;;;;;;;5036462;28;20476;-59
2021/09/21 12:17:26;;;;;;;6.90;5.75;;;;;;;;;;5036464;28;20168;-59
2021/09/21 12:19:59;;;;;;;6.20;5.05;;;;;;;;;;5036465;28;20033;-59
2021/09/21 12:22:29;;;;;;;6.07;5.15;;;;;;;;;;5036670;28;20021;-59
2021/09/21 12:25:11;;;;;;;6.50;5.03;;;;;;;;;;5036122;28;20021;-59
2021/09/21 12:27:37;;;;;;;6.82;6.15;;;;;;;;;;5036319;28;20032;-59
2021/09/21 12:30:08;;;;;;;7.43;5.55;;;;;;;;;;5036076;28;20033;-59
2021/09/21 12:32:34;;;;;;;6.25;4.68;;;;;;;;;;5036466;28;20456;-59
2021/09/21 12:35:04;;;;;;;7.60;6.78;;;;;;;;;;5035707;28;20025;-59
2021/09/21 12:37:40;;;;;;;8.25;6.53;;;;;;;;;;5035864;28;20057;-59
2021/09/21 12:40:09;;;;;;;7.15;5.75;;;;;;;;;;5036062;28;20025;-59
2021/09/21 12:42:35;;;;;;;7.22;6.32;;;;;;;;;;5037124;28;20025;-59
2021/09/21 12:45:02;;;;;;;6.88;5.90;;;;;;;;;;5035936;28;20044;-59
2021/09/21 12:47:29;;;;;;;7.13;5.95;;;;;;;;;;5035548;28;20357;-59
2021/09/21 12:49:55;;;;;;;8.98;6.38;;;;;;;;;;5035742;28;20030;-59
2021/09/21 12:52:29;;;;;;;7.55;6.43;;;;;;;;;;5036010;28;20112;-59
2021/09/21 12:54:56;;;;;;;7.15;5.43;;;;;;;;;;5018511;28;20452;-59
2021/09/21 12:57:22;;;;;;;7.05;5.57;;;;;;;;;;5035656;28;20084;-59
2021/09/21 12:59:54;;;;;;;6.25;5.57;;;;;;;;;;5036072;28;20030;-59
2021/09/21 13:02:20;;;;;;;8.02;6.55;;;;;;;;;;5035828;28;20025;-59
2021/09/21 13:04:46;;;;;;;6.82;5.72;;;;;;;;;;5035379;28;20030;-58
2021/09/21 13:07:12;;;;;;;7.60;6.80;;;;;;;;;;5035706;28;20116;-59
2021/09/21 13:09:41;;;;;;;6.70;5.63;;;;;;;;;;5035606;28;20124;-59
2021/09/21 13:12:08;;;;;;;6.70;6.00;;;;;;;;;;5035746;28;20510;-59
2021/09/21 13:14:36;;;;;;;8.20;6.22;;;;;;;;;;5035691;28;20045;-59
2021/09/21 13:17:02;;;;;;;9.40;6.18;;;;;;;;;;5035862;28;20033;-59
2021/09/21 13:19:28;;;;;;;6.50;5.80;;;;;;;;;;5035187;28;20033;-59
2021/09/21 13:21:54;;;;;;;9.13;6.38;;;;;;;;;;5036052;28;20030;-59
2021/09/21 13:24:20;;;;;;;6.25;5.55;;;;;;;;;;5035228;28;20509;-59
2021/09/21 13:26:47;;;;;;;8.52;5.70;;;;;;;;;;5035137;28;20014;-59
2021/09/21 13:29:13;;;;;;;6.53;5.85;;;;;;;;;;5035041;28;20360;-59
2021/09/21 13:31:39;;;;;;;8.00;6.13;;;;;;;;;;5035424;28;20088;-59
2021/09/21 13:34:05;;;;;;;8.35;6.88;;;;;;;;;;5018007;28;20029;-59
2021/09/21 13:36:31;;;;;;;7.95;5.95;;;;;;;;;;5034844;28;20032;-59
2021/09/21 13:38:57;;;;;;;10.93;7.07;;;;;;;;;;5034562;28;20033;-59
2021/09/21 13:41:24;;;;;;;8.70;6.03;;;;;;;;;;5035274;28;20037;-59
2021/09/21 13:43:50;;;;;;;8.02;5.65;;;;;;;;;;5035126;28;20353;-59
2021/09/21 13:46:15;;;;;;;6.22;5.63;;;;;;;;;;5033832;28;20072;-59
2021/09/21 13:48:42;;;;;;;6.15;5.45;;;;;;;;;;5034324;28;20073;-59
2021/09/21 13:51:11;;;;;;;6.45;5.43;;;;;;;;;;5034441;28;20033;-58
2021/09/21 13:53:37;;;;;;;6.43;5.07;;;;;;;;;;5034869;28;20029;-59
2021/09/21 13:56:03;;;;;;;5.50;4.75;;;;;;;;;;5034358;28;20121;-59
2021/09/21 13:58:29;;;;;;;6.40;5.55;;;;;;;;;;5035113;28;20379;-59
2021/09/21 14:00:55;;;;;;;7.30;5.82;;;;;;;;;;5034283;28;20044;-59
2021/09/21 14:03:21;;;;;;;7.75;5.68;;;;;;;;;;5034366;28;20451;-59
2021/09/21 14:05:47;;;;;;;5.93;5.32;;;;;;;;;;5035180;28;20033;-59
2021/09/21 14:08:13;;;;;;;6.50;5.10;;;;;;;;;;5034266;28;20025;-59
2021/09/21 14:10:39;;;;;;;5.93;4.93;;;;;;;;;;5034794;28;20022;-59
2021/09/21 14:13:05;;;;;;;7.03;4.88;;;;;;;;;;5034030;28;20502;-59
2021/09/21 14:15:31;;;;;;;5.80;5.22;;;;;;;;;;5034099;28;20033;-59
2021/09/21 14:17:57;;;;;;;6.18;5.55;;;;;;;;;;5016508;28;20108;-59
2021/09/21 14:20:26;;;;;;;6.53;4.93;;;;;;;;;;5034043;28;20108;-59
2021/09/21 14:22:52;;;;;;;6.75;5.88;;;;;;;;;;5016719;28;20081;-59
2021/09/21 14:25:18;;;;;;;6.72;5.57;;;;;;;;;;5033608;28;20033;-59
2021/09/21 14:27:44;;;;;;;8.93;5.68;;;;;;;;;;5034350;28;20460;-59
2021/09/21 14:30:12;;;;;;;6.97;4.85;;;;;;;;;;5034232;28;20456;-59
2021/09/21 14:32:39;;;;;;;6.28;5.68;;;;;;;;;;5034575;28;20029;-59
2021/09/21 14:35:05;;;;;;;8.43;6.43;;;;;;;;;;5033976;28;20084;-59
2021/09/21 14:37:31;;;;;;;6.93;5.18;;;;;;;;;;5033857;28;20026;-59
2021/09/21 14:39:58;;;;;;;8.23;6.05;;;;;;;;;;5034652;28;20056;-59
2021/09/21 14:42:24;;;;;;;9.07;6.20;;;;;;;;;;5034148;28;20036;-59
2021/09/21 14:44:50;;;;;;;7.60;5.38;;;;;;;;;;5033805;28;20029;-59
2021/09/21 14:47:16;;;;;;;7.05;6.35;;;;;;;;;;5033544;28;20048;-59
2021/09/21 14:49:42;;;;;;;5.97;4.63;;;;;;;;;;5016483;28;20379;-58
2021/09/21 14:52:08;;;;;;;7.38;6.07;;;;;;;;;;5033593;28;20025;-59
2021/09/21 14:54:34;;;;;;;5.40;4.70;;;;;;;;;;5034347;28;20033;-59
2021/09/21 14:57:00;;;;;;;7.00;5.80;;;;;;;;;;5033851;28;20048;-59
2021/09/21 14:59:29;;;;;;;6.75;5.70;;;;;;;;;;5032969;28;20029;-59